Weather at Skien Hospital Heliport

Public forecast

Using degrees Celsius for public forecast. Weather courtesy of forecast.io.

Closest aviation weather report (METAR) to Skien Hospital Heliport

Report is more than 6 hours old.

Closest report is Sandefjord Airport, Torp, 20.5 nm (37.9 km) E.

2022/11/14 15:20 (retrieved 2 years ago)

ENTO 141520Z 36007KT 9999 SCT003 BKN015 BKN019 06/06 Q1021 TEMPO FEW003 BKN012

Closest aviation forecast (TAF) to Skien Hospital Heliport

Forecast is more than 12 hours old.

Closest forecast is Sandefjord Airport, Torp, 20.5 nm (37.9 km) E.

2023/02/22 18:39 (retrieved 1 year ago)

TAF ENTO 221700Z 2218/2318 16014KT 4000 -RA BR SCT002 OVC008 TEMPO 2218/2221 1200 SNRA BR VV003 TEMPO 2221/2307 1200 RADZ BR OVC002 BECMG 2307/2309 01012KT NSW SCT030